sensor_id;sensor_type;location;lat;lon;timestamp;pressure;altitude;pressure_sealevel;temperature;humidity
8697;BME280;4385;48.848;8.924;2023-04-07T00:01:13;97396.94;;;18.59;100.00
8697;BME280;4385;48.848;8.924;2023-04-07T00:03:38;97393.53;;;18.60;100.00
8697;BME280;4385;48.848;8.924;2023-04-07T00:06:05;97388.41;;;18.60;100.00
8697;BME280;4385;48.848;8.924;2023-04-07T00:08:30;97388.41;;;18.60;100.00
8697;BME280;4385;48.848;8.924;2023-04-07T00:10:56;97386.69;;;18.60;100.00
8697;BME280;4385;48.848;8.924;2023-04-07T00:13:22;97380.75;;;18.60;100.00
8697;BME280;4385;48.848;8.924;2023-04-07T00:15:47;97373.09;;;18.60;100.00
8697;BME280;4385;48.848;8.924;2023-04-07T00:18:13;97375.66;;;18.60;100.00
8697;BME280;4385;48.848;8.924;2023-04-07T00:20:38;97369.75;;;18.57;100.00
8697;BME280;4385;48.848;8.924;2023-04-07T00:23:04;97367.22;;;18.56;100.00
8697;BME280;4385;48.848;8.924;2023-04-07T00:25:29;97374.91;;;18.54;100.00
8697;BME280;4385;48.848;8.924;2023-04-07T00:27:54;97362.25;;;18.51;100.00
8697;BME280;4385;48.848;8.924;2023-04-07T00:30:20;97366.53;;;18.49;100.00
8697;BME280;4385;48.848;8.924;2023-04-07T00:32:45;97367.41;;;18.48;100.00
8697;BME280;4385;48.848;8.924;2023-04-07T00:35:10;97359.84;;;18.45;100.00
8697;BME280;4385;48.848;8.924;2023-04-07T00:37:36;97356.47;;;18.43;100.00
8697;BME280;4385;48.848;8.924;2023-04-07T00:40:01;97353.16;;;18.41;100.00
8697;BME280;4385;48.848;8.924;2023-04-07T00:42:28;97354.88;;;18.39;100.00
8697;BME280;4385;48.848;8.924;2023-04-07T00:44:53;97352.38;;;18.37;100.00
8697;BME280;4385;48.848;8.924;2023-04-07T00:47:19;97351.53;;;18.37;100.00
8697;BME280;4385;48.848;8.924;2023-04-07T00:49:44;97343.00;;;18.38;100.00
8697;BME280;4385;48.848;8.924;2023-04-07T00:52:09;97342.94;;;18.41;100.00
8697;BME280;4385;48.848;8.924;2023-04-07T00:54:37;97332.66;;;18.44;100.00
8697;BME280;4385;48.848;8.924;2023-04-07T00:57:03;97324.94;;;18.47;100.00
8697;BME280;4385;48.848;8.924;2023-04-07T00:59:28;97318.06;;;18.49;100.00
8697;BME280;4385;48.848;8.924;2023-04-07T01:02:07;97321.41;;;18.51;100.00
8697;BME280;4385;48.848;8.924;2023-04-07T01:04:46;97321.41;;;18.51;100.00
8697;BME280;4385;48.848;8.924;2023-04-07T01:07:23;97313.75;;;18.51;100.00
8697;BME280;4385;48.848;8.924;2023-04-07T01:09:57;97315.44;;;18.52;100.00
8697;BME280;4385;48.848;8.924;2023-04-07T01:12:35;97310.31;;;18.52;100.00
8697;BME280;4385;48.848;8.924;2023-04-07T01:15:10;97307.72;;;18.54;100.00
8697;BME280;4385;48.848;8.924;2023-04-07T01:17:42;97308.56;;;18.54;100.00
8697;BME280;4385;48.848;8.924;2023-04-07T01:20:12;97301.81;;;18.53;100.00
8697;BME280;4385;48.848;8.924;2023-04-07T01:22:50;97302.63;;;18.54;100.00
8697;BME280;4385;48.848;8.924;2023-04-07T01:25:25;97298.41;;;18.53;100.00
8697;BME280;4385;48.848;8.924;2023-04-07T01:28:25;97288.25;;;18.51;100.00
8697;BME280;4385;48.848;8.924;2023-04-07T01:30:56;97295.09;;;18.49;100.00
8697;BME280;4385;48.848;8.924;2023-04-07T01:33:23;97289.22;;;18.47;100.00
8697;BME280;4385;48.848;8.924;2023-04-07T01:35:49;97287.59;;;18.43;100.00
8697;BME280;4385;48.848;8.924;2023-04-07T01:38:16;97285.97;;;18.40;100.00
8697;BME280;4385;48.848;8.924;2023-04-07T01:40:43;97285.19;;;18.37;100.00
8697;BME280;4385;48.848;8.924;2023-04-07T01:43:09;97281.88;;;18.35;100.00
8697;BME280;4385;48.848;8.924;2023-04-07T01:45:36;97276.84;;;18.31;100.00
8697;BME280;4385;48.848;8.924;2023-04-07T01:48:04;97275.19;;;18.29;100.00
8697;BME280;4385;48.848;8.924;2023-04-07T01:50:31;97276.06;;;18.28;100.00
8697;BME280;4385;48.848;8.924;2023-04-07T01:52:57;97272.66;;;18.27;100.00
8697;BME280;4385;48.848;8.924;2023-04-07T01:55:23;97269.25;;;18.28;100.00
8697;BME280;4385;48.848;8.924;2023-04-07T01:57:49;97272.63;;;18.29;100.00
8697;BME280;4385;48.848;8.924;2023-04-07T02:00:14;97268.31;;;18.32;100.00
8697;BME280;4385;48.848;8.924;2023-04-07T02:02:44;97270.84;;;18.32;100.00
8697;BME280;4385;48.848;8.924;2023-04-07T02:05:12;97265.72;;;18.34;100.00
8697;BME280;4385;48.848;8.924;2023-04-07T02:10:15;97269.81;;;18.40;100.00
8697;BME280;4385;48.848;8.924;2023-04-07T02:12:42;97263.81;;;18.42;100.00
8697;BME280;4385;48.848;8.924;2023-04-07T02:15:11;97256.06;;;18.46;100.00
8697;BME280;4385;48.848;8.924;2023-04-07T02:17:38;97260.28;;;18.47;100.00
8697;BME280;4385;48.848;8.924;2023-04-07T02:20:08;97258.63;;;18.46;100.00
8697;BME280;4385;48.848;8.924;2023-04-07T02:22:35;97246.72;;;18.44;100.00
8697;BME280;4385;48.848;8.924;2023-04-07T02:25:01;97244.22;;;18.43;100.00
8697;BME280;4385;48.848;8.924;2023-04-07T02:27:26;97249.38;;;18.41;100.00
8697;BME280;4385;48.848;8.924;2023-04-07T02:29:52;97244.31;;;18.40;100.00
8697;BME280;4385;48.848;8.924;2023-04-07T02:32:18;97244.38;;;18.37;100.00
8697;BME280;4385;48.848;8.924;2023-04-07T02:34:43;97243.59;;;18.35;100.00
8697;BME280;4385;48.848;8.924;2023-04-07T02:37:08;97241.09;;;18.33;100.00
8697;BME280;4385;48.848;8.924;2023-04-07T02:39:34;97244.53;;;18.30;100.00
8697;BME280;4385;48.848;8.924;2023-04-07T02:41:59;97235.25;;;18.28;100.00
8697;BME280;4385;48.848;8.924;2023-04-07T02:44:24;97231.91;;;18.26;100.00
8697;BME280;4385;48.848;8.924;2023-04-07T02:46:50;97231.09;;;18.25;100.00
8697;BME280;4385;48.848;8.924;2023-04-07T02:49:15;97231.09;;;18.25;100.00
8697;BME280;4385;48.848;8.924;2023-04-07T02:51:40;97226.75;;;18.27;100.00
8697;BME280;4385;48.848;8.924;2023-04-07T02:54:06;97229.28;;;18.29;100.00
8697;BME280;4385;48.848;8.924;2023-04-07T02:56:31;97230.13;;;18.29;100.00
8697;BME280;4385;48.848;8.924;2023-04-07T02:58:56;97228.38;;;18.31;100.00
8697;BME280;4385;48.848;8.924;2023-04-07T03:01:22;97229.16;;;18.34;100.00
8697;BME280;4385;48.848;8.924;2023-04-07T03:03:47;97224.84;;;18.36;100.00
8697;BME280;4385;48.848;8.924;2023-04-07T03:06:13;97217.13;;;18.39;100.00
8697;BME280;4385;48.848;8.924;2023-04-07T03:08:38;97226.44;;;18.40;100.00
8697;BME280;4385;48.848;8.924;2023-04-07T03:11:03;97224.69;;;18.42;100.00
8697;BME280;4385;48.848;8.924;2023-04-07T03:13:29;97227.25;;;18.42;100.00
8697;BME280;4385;48.848;8.924;2023-04-07T03:15:56;97223.81;;;18.43;100.00
8697;BME280;4385;48.848;8.924;2023-04-07T03:18:21;97222.97;;;18.44;100.00
8697;BME280;4385;48.848;8.924;2023-04-07T03:20:47;97211.06;;;18.43;100.00
8697;BME280;4385;48.848;8.924;2023-04-07T03:23:13;97210.28;;;18.41;100.00
8697;BME280;4385;48.848;8.924;2023-04-07T03:25:38;97202.63;;;18.41;100.00
8697;BME280;4385;48.848;8.924;2023-04-07T03:28:03;97206.03;;;18.40;100.00
8697;BME280;4385;48.848;8.924;2023-04-07T03:30:29;97197.56;;;18.39;100.00
8697;BME280;4385;48.848;8.924;2023-04-07T03:32:54;97203.47;;;18.40;100.00
8697;BME280;4385;48.848;8.924;2023-04-07T03:35:19;97194.22;;;18.37;100.00
8697;BME280;4385;48.848;8.924;2023-04-07T03:37:45;97197.69;;;18.35;100.00
8697;BME280;4385;48.848;8.924;2023-04-07T03:40:11;97200.31;;;18.31;100.00
8697;BME280;4385;48.848;8.924;2023-04-07T03:42:36;97200.31;;;18.31;100.00
8697;BME280;4385;48.848;8.924;2023-04-07T03:45:01;97197.75;;;18.31;100.00
8697;BME280;4385;48.848;8.924;2023-04-07T03:47:27;97193.47;;;18.32;100.00
8697;BME280;4385;48.848;8.924;2023-04-07T03:49:52;97191.78;;;18.32;100.00
8697;BME280;4385;48.848;8.924;2023-04-07T03:52:17;97195.13;;;18.35;100.00
8697;BME280;4385;48.848;8.924;2023-04-07T03:54:43;97195.06;;;18.38;100.00
8697;BME280;4385;48.848;8.924;2023-04-07T03:57:08;97202.66;;;18.39;100.00
8697;BME280;4385;48.848;8.924;2023-04-07T03:59:34;97191.63;;;18.39;100.00
8697;BME280;4385;48.848;8.924;2023-04-07T04:01:59;97191.63;;;18.39;100.00
8697;BME280;4385;48.848;8.924;2023-04-07T04:04:24;97195.00;;;18.39;100.00
8697;BME280;4385;48.848;8.924;2023-04-07T04:06:50;97191.56;;;18.40;100.00
8697;BME280;4385;48.848;8.924;2023-04-07T04:09:16;97194.13;;;18.40;100.00
8697;BME280;4385;48.848;8.924;2023-04-07T04:11:41;97188.09;;;18.43;100.00
8697;BME280;4385;48.848;8.924;2023-04-07T04:14:06;97187.19;;;18.46;100.00
8697;BME280;4385;48.848;8.924;2023-04-07T04:16:32;97186.25;;;18.48;100.00
8697;BME280;4385;48.848;8.924;2023-04-07T04:18:59;97179.47;;;18.49;100.00
8697;BME280;4385;48.848;8.924;2023-04-07T04:21:24;97182.88;;;18.48;100.00
8697;BME280;4385;48.848;8.924;2023-04-07T04:23:51;97192.25;;;18.47;100.00
8697;BME280;4385;48.848;8.924;2023-04-07T04:26:17;97188.84;;;18.47;100.00
8697;BME280;4385;48.848;8.924;2023-04-07T04:28:44;97187.19;;;18.46;100.00
8697;BME280;4385;48.848;8.924;2023-04-07T04:31:09;97180.44;;;18.43;100.00
8697;BME280;4385;48.848;8.924;2023-04-07T04:33:35;97182.31;;;18.38;100.00
8697;BME280;4385;48.848;8.924;2023-04-07T04:36:00;97179.84;;;18.35;100.00
8697;BME280;4385;48.848;8.924;2023-04-07T04:38:26;97184.16;;;18.31;100.00
8697;BME280;4385;48.848;8.924;2023-04-07T04:40:51;97178.31;;;18.27;100.00
8697;BME280;4385;48.848;8.924;2023-04-07T04:43:16;97183.47;;;18.24;100.00
8697;BME280;4385;48.848;8.924;2023-04-07T04:45:42;97186.06;;;18.23;100.00
8697;BME280;4385;48.848;8.924;2023-04-07T04:48:07;97185.28;;;18.21;100.00
8697;BME280;4385;48.848;8.924;2023-04-07T04:50:33;97187.00;;;18.20;100.00
8697;BME280;4385;48.848;8.924;2023-04-07T04:52:58;97191.22;;;18.21;100.00
8697;BME280;4385;48.848;8.924;2023-04-07T04:55:23;97193.75;;;18.21;100.00
8697;BME280;4385;48.848;8.924;2023-04-07T04:57:49;97192.09;;;18.20;100.00
8697;BME280;4385;48.848;8.924;2023-04-07T05:00:14;97191.22;;;18.21;100.00
8697;BME280;4385;48.848;8.924;2023-04-07T05:02:40;97197.13;;;18.23;100.00
8697;BME280;4385;48.848;8.924;2023-04-07T05:05:06;97192.78;;;18.27;100.00
8697;BME280;4385;48.848;8.924;2023-04-07T05:07:31;97191.00;;;18.29;100.00
8697;BME280;4385;48.848;8.924;2023-04-07T05:09:57;97191.00;;;18.29;100.00
8697;BME280;4385;48.848;8.924;2023-04-07T05:12:22;97196.97;;;18.29;100.00
8697;BME280;4385;48.848;8.924;2023-04-07T05:14:47;97191.84;;;18.29;100.00
8697;BME280;4385;48.848;8.924;2023-04-07T05:17:13;97200.34;;;18.30;100.00
8697;BME280;4385;48.848;8.924;2023-04-07T05:19:38;97199.47;;;18.31;100.00
8697;BME280;4385;48.848;8.924;2023-04-07T05:22:03;97197.84;;;18.28;100.00
8697;BME280;4385;48.848;8.924;2023-04-07T05:24:28;97190.25;;;18.27;100.00
8697;BME280;4385;48.848;8.924;2023-04-07T05:26:54;97196.19;;;18.26;100.00
8697;BME280;4385;48.848;8.924;2023-04-07T05:29:21;97197.13;;;18.23;100.00
8697;BME280;4385;48.848;8.924;2023-04-07T05:31:46;97197.19;;;18.20;100.00
8697;BME280;4385;48.848;8.924;2023-04-07T05:34:12;97189.59;;;18.18;100.00
8697;BME280;4385;48.848;8.924;2023-04-07T05:36:37;97189.66;;;18.15;100.00
8697;BME280;4385;48.848;8.924;2023-04-07T05:39:02;97193.09;;;18.14;100.00
8697;BME280;4385;48.848;8.924;2023-04-07T05:41:28;97199.06;;;18.13;100.00
8697;BME280;4385;48.848;8.924;2023-04-07T05:43:53;97194.84;;;18.12;100.00
8697;BME280;4385;48.848;8.924;2023-04-07T05:46:18;97203.38;;;18.11;100.00
8697;BME280;4385;48.848;8.924;2023-04-07T05:48:43;97199.94;;;18.12;100.00
8697;BME280;4385;48.848;8.924;2023-04-07T05:51:09;97200.78;;;18.13;100.00
8697;BME280;4385;48.848;8.924;2023-04-07T05:53:34;97199.88;;;18.15;100.00
8697;BME280;4385;48.848;8.924;2023-04-07T05:56:00;97193.91;;;18.15;100.00
8697;BME280;4385;48.848;8.924;2023-04-07T05:58:25;97200.72;;;18.16;100.00
8697;BME280;4385;48.848;8.924;2023-04-07T06:00:52;97197.28;;;18.17;100.00
8697;BME280;4385;48.848;8.924;2023-04-07T06:03:17;97193.84;;;18.18;100.00
8697;BME280;4385;48.848;8.924;2023-04-07T06:05:45;97197.28;;;18.17;100.00
8697;BME280;4385;48.848;8.924;2023-04-07T06:08:10;97198.09;;;18.19;100.00
8697;BME280;4385;48.848;8.924;2023-04-07T06:10:36;97202.31;;;18.20;100.00
8697;BME280;4385;48.848;8.924;2023-04-07T06:13:01;97205.66;;;18.22;100.00
8697;BME280;4385;48.848;8.924;2023-04-07T06:15:26;97203.09;;;18.22;100.00
8697;BME280;4385;48.848;8.924;2023-04-07T06:17:51;97208.25;;;18.21;100.00
8697;BME280;4385;48.848;8.924;2023-04-07T06:20:17;97203.97;;;18.21;100.00
8697;BME280;4385;48.848;8.924;2023-04-07T06:22:44;97203.97;;;18.21;100.00
8697;BME280;4385;48.848;8.924;2023-04-07T06:25:09;97203.16;;;18.21;100.00
8697;BME280;4385;48.848;8.924;2023-04-07T06:27:34;97202.34;;;18.18;100.00
8697;BME280;4385;48.848;8.924;2023-04-07T06:30:00;97202.38;;;18.17;100.00
8697;BME280;4385;48.848;8.924;2023-04-07T06:32:25;97203.31;;;18.14;100.00
8697;BME280;4385;48.848;8.924;2023-04-07T06:34:50;97205.94;;;18.11;100.00
8697;BME280;4385;48.848;8.924;2023-04-07T06:37:16;97204.25;;;18.08;100.00
8697;BME280;4385;48.848;8.924;2023-04-07T06:39:42;97205.09;;;18.09;100.00
8697;BME280;4385;48.848;8.924;2023-04-07T06:42:07;97201.78;;;18.05;100.00
8697;BME280;4385;48.848;8.924;2023-04-07T06:44:32;97207.75;;;18.04;100.00
8697;BME280;4385;48.848;8.924;2023-04-07T06:46:58;97200.09;;;18.04;100.00
8697;BME280;4385;48.848;8.924;2023-04-07T06:49:23;97204.31;;;18.05;100.00
8697;BME280;4385;48.848;8.924;2023-04-07T06:51:48;97197.53;;;18.06;100.00
8697;BME280;4385;48.848;8.924;2023-04-07T06:54:14;97198.38;;;18.06;100.00
8697;BME280;4385;48.848;8.924;2023-04-07T06:56:40;97198.38;;;18.06;100.00
8697;BME280;4385;48.848;8.924;2023-04-07T06:59:06;97199.09;;;18.12;100.00
8697;BME280;4385;48.848;8.924;2023-04-07T07:01:32;97199.81;;;18.17;100.00
8697;BME280;4385;48.848;8.924;2023-04-07T07:03:57;97196.31;;;18.21;100.00
8697;BME280;4385;48.848;8.924;2023-04-07T07:06:24;97194.50;;;18.26;100.00
8697;BME280;4385;48.848;8.924;2023-04-07T07:08:50;97199.38;;;18.34;100.00
8697;BME280;4385;48.848;8.924;2023-04-07T07:11:16;97201.81;;;18.39;100.00
8697;BME280;4385;48.848;8.924;2023-04-07T07:13:41;97200.88;;;18.41;100.00
8697;BME280;4385;48.848;8.924;2023-04-07T07:16:06;97206.75;;;18.45;100.00
8697;BME280;4385;48.848;8.924;2023-04-07T07:18:32;97196.47;;;18.48;100.00
8697;BME280;4385;48.848;8.924;2023-04-07T07:20:57;97197.31;;;18.49;100.00
8697;BME280;4385;48.848;8.924;2023-04-07T07:23:22;97204.94;;;18.50;100.00
8697;BME280;4385;48.848;8.924;2023-04-07T07:25:48;97205.00;;;18.47;100.00
8697;BME280;4385;48.848;8.924;2023-04-07T07:28:13;97199.88;;;18.49;100.00
8697;BME280;4385;48.848;8.924;2023-04-07T07:30:39;97196.47;;;18.48;100.00
8697;BME280;4385;48.848;8.924;2023-04-07T07:33:07;97199.81;;;18.50;100.00
8697;BME280;4385;48.848;8.924;2023-04-07T07:35:32;97198.06;;;18.52;100.00
8697;BME280;4385;48.848;8.924;2023-04-07T07:37:57;97205.66;;;18.54;100.00
8697;BME280;4385;48.848;8.924;2023-04-07T07:40:23;97197.09;;;18.56;100.00
8697;BME280;4385;48.848;8.924;2023-04-07T07:42:48;97199.56;;;18.60;100.00
8697;BME280;4385;48.848;8.924;2023-04-07T07:45:13;97199.41;;;18.66;100.00
8697;BME280;4385;48.848;8.924;2023-04-07T07:47:39;97205.25;;;18.69;100.00
8697;BME280;4385;48.848;8.924;2023-04-07T07:50:05;97207.59;;;18.77;100.00
8697;BME280;4385;48.848;8.924;2023-04-07T07:52:31;97198.13;;;18.81;100.00
8697;BME280;4385;48.848;8.924;2023-04-07T07:54:56;97200.47;;;18.89;100.00
8697;BME280;4385;48.848;8.924;2023-04-07T07:57:21;97203.75;;;18.94;100.00
8697;BME280;4385;48.848;8.924;2023-04-07T07:59:46;97204.41;;;18.99;100.00
8697;BME280;4385;48.848;8.924;2023-04-07T08:02:12;97205.03;;;19.07;100.00
8697;BME280;4385;48.848;8.924;2023-04-07T08:04:37;97207.53;;;19.11;100.00
8697;BME280;4385;48.848;8.924;2023-04-07T08:07:03;97196.34;;;19.15;100.00
8697;BME280;4385;48.848;8.924;2023-04-07T08:09:29;97204.81;;;19.17;100.00
8697;BME280;4385;48.848;8.924;2023-04-07T08:11:54;97203.81;;;19.21;100.00
8697;BME280;4385;48.848;8.924;2023-04-07T08:14:20;97196.16;;;19.21;100.00
8697;BME280;4385;48.848;8.924;2023-04-07T08:16:45;97199.50;;;19.23;100.00
8697;BME280;4385;48.848;8.924;2023-04-07T08:19:11;97202.03;;;19.25;100.00
8697;BME280;4385;48.848;8.924;2023-04-07T08:21:37;97200.25;;;19.27;100.00
8697;BME280;4385;48.848;8.924;2023-04-07T08:24:03;97206.19;;;19.27;100.00
8697;BME280;4385;48.848;8.924;2023-04-07T08:26:28;97199.41;;;19.26;100.00
8697;BME280;4385;48.848;8.924;2023-04-07T08:28:54;97211.34;;;19.26;100.00
8697;BME280;4385;48.848;8.924;2023-04-07T08:31:20;97205.41;;;19.25;100.00
8697;BME280;4385;48.848;8.924;2023-04-07T08:33:45;97204.63;;;19.23;100.00
8697;BME280;4385;48.848;8.924;2023-04-07T08:36:11;97215.69;;;19.24;100.00
8697;BME280;4385;48.848;8.924;2023-04-07T08:38:37;97209.72;;;19.23;100.00
8697;BME280;4385;48.848;8.924;2023-04-07T08:41:16;97214.84;;;19.23;100.00
8697;BME280;4385;48.848;8.924;2023-04-07T08:43:43;97219.94;;;19.23;100.00
8697;BME280;4385;48.848;8.924;2023-04-07T08:46:11;97218.09;;;19.28;100.00
8697;BME280;4385;48.848;8.924;2023-04-07T08:48:37;97219.78;;;19.29;100.00
8697;BME280;4385;48.848;8.924;2023-04-07T08:51:07;97217.22;;;19.29;100.00
8697;BME280;4385;48.848;8.924;2023-04-07T08:53:42;97214.69;;;19.28;100.00
8697;BME280;4385;48.848;8.924;2023-04-07T08:56:15;97213.75;;;19.30;100.00
8697;BME280;4385;48.848;8.924;2023-04-07T08:58:41;97216.97;;;19.37;100.00
8697;BME280;4385;48.848;8.924;2023-04-07T09:01:08;97217.78;;;19.39;100.00
8697;BME280;4385;48.848;8.924;2023-04-07T09:03:33;97218.69;;;19.37;100.00
8697;BME280;4385;48.848;8.924;2023-04-07T09:05:59;97213.53;;;19.38;100.00
8697;BME280;4385;48.848;8.924;2023-04-07T09:08:25;97224.59;;;19.39;100.00
8697;BME280;4385;48.848;8.924;2023-04-07T09:10:50;97221.09;;;19.41;100.00
8697;BME280;4385;48.848;8.924;2023-04-07T09:13:16;97218.47;;;19.44;100.00
8697;BME280;4385;48.848;8.924;2023-04-07T09:15:41;97224.38;;;19.47;100.00
8697;BME280;4385;48.848;8.924;2023-04-07T09:18:06;97223.44;;;19.49;100.00
8697;BME280;4385;48.848;8.924;2023-04-07T09:20:58;97222.47;;;19.53;100.00
8697;BME280;4385;48.848;8.924;2023-04-07T09:23:28;97224.22;;;19.51;100.00
8697;BME280;4385;48.848;8.924;2023-04-07T09:25:55;97229.34;;;19.51;100.00
8697;BME280;4385;48.848;8.924;2023-04-07T09:28:20;97226.78;;;19.51;100.00
8697;BME280;4385;48.848;8.924;2023-04-07T09:30:53;97226.78;;;19.51;100.00
8697;BME280;4385;48.848;8.924;2023-04-07T09:33:26;97225.13;;;19.50;100.00
8697;BME280;4385;48.848;8.924;2023-04-07T09:35:52;97223.44;;;19.49;100.00
8697;BME280;4385;48.848;8.924;2023-04-07T09:38:18;97227.72;;;19.49;100.00
8697;BME280;4385;48.848;8.924;2023-04-07T09:40:43;97224.31;;;19.48;100.00
8697;BME280;4385;48.848;8.924;2023-04-07T09:43:14;97231.97;;;19.48;100.00
8697;BME280;4385;48.848;8.924;2023-04-07T09:45:40;97225.97;;;19.49;100.00
8697;BME280;4385;48.848;8.924;2023-04-07T09:48:07;97227.66;;;19.50;100.00
8697;BME280;4385;48.848;8.924;2023-04-07T09:50:34;97225.06;;;19.52;100.00
8697;BME280;4385;48.848;8.924;2023-04-07T09:53:01;97224.19;;;19.53;100.00
8697;BME280;4385;48.848;8.924;2023-04-07T09:55:27;97219.03;;;19.54;100.00
8697;BME280;4385;48.848;8.924;2023-04-07T09:57:53;97232.59;;;19.56;100.00
8697;BME280;4385;48.848;8.924;2023-04-07T10:00:22;97228.25;;;19.59;100.00
8697;BME280;4385;48.848;8.924;2023-04-07T10:02:48;97230.81;;;19.59;100.00
8697;BME280;4385;48.848;8.924;2023-04-07T10:05:15;97228.22;;;19.60;100.00
8697;BME280;4385;48.848;8.924;2023-04-07T10:07:41;97228.16;;;19.62;100.00
8697;BME280;4385;48.848;8.924;2023-04-07T10:10:07;97232.41;;;19.63;100.00
8697;BME280;4385;48.848;8.924;2023-04-07T10:12:34;97235.72;;;19.65;100.00
8697;BME280;4385;48.848;8.924;2023-04-07T10:15:01;97234.06;;;19.64;100.00
8697;BME280;4385;48.848;8.924;2023-04-07T10:17:27;97234.88;;;19.66;100.00
8697;BME280;4385;48.848;8.924;2023-04-07T10:19:53;97242.53;;;19.66;100.00
8697;BME280;4385;48.848;8.924;2023-04-07T10:22:21;97225.50;;;19.65;100.00
8697;BME280;4385;48.848;8.924;2023-04-07T10:27:26;97228.97;;;19.64;100.00
8697;BME280;4385;48.848;8.924;2023-04-07T10:29:53;97235.81;;;19.62;100.00
8697;BME280;4385;48.848;8.924;2023-04-07T10:32:19;97227.34;;;19.61;100.00
8697;BME280;4385;48.848;8.924;2023-04-07T10:37:18;97233.38;;;19.59;100.00
8697;BME280;4385;48.848;8.924;2023-04-07T10:39:45;97228.34;;;19.55;100.00
8697;BME280;4385;48.848;8.924;2023-04-07T10:42:44;97236.91;;;19.54;100.00
8697;BME280;4385;48.848;8.924;2023-04-07T10:45:10;97234.44;;;19.51;100.00
8697;BME280;4385;48.848;8.924;2023-04-07T10:50:26;97226.88;;;19.48;100.00
8697;BME280;4385;48.848;8.924;2023-04-07T10:53:12;97231.09;;;19.49;100.00
8697;BME280;4385;48.848;8.924;2023-04-07T10:55:39;97229.47;;;19.47;100.00
8697;BME280;4385;48.848;8.924;2023-04-07T10:58:32;97226.97;;;19.45;100.00
8697;BME280;4385;48.848;8.924;2023-04-07T11:03:37;97227.91;;;19.42;100.00
8697;BME280;4385;48.848;8.924;2023-04-07T11:08:36;97237.25;;;19.43;100.00
8697;BME280;4385;48.848;8.924;2023-04-07T11:11:02;97233.03;;;19.42;100.00
8697;BME280;4385;48.848;8.924;2023-04-07T11:13:42;97234.72;;;19.42;100.00
8697;BME280;4385;48.848;8.924;2023-04-07T11:16:08;97226.25;;;19.40;100.00
8697;BME280;4385;48.848;8.924;2023-04-07T11:18:35;97235.66;;;19.39;100.00
8697;BME280;4385;48.848;8.924;2023-04-07T11:21:01;97232.25;;;19.39;100.00
8697;BME280;4385;48.848;8.924;2023-04-07T11:23:27;97240.88;;;19.36;100.00
8697;BME280;4385;48.848;8.924;2023-04-07T11:25:59;97237.47;;;19.36;100.00
8697;BME280;4385;48.848;8.924;2023-04-07T11:28:28;97231.56;;;19.34;100.00
8697;BME280;4385;48.848;8.924;2023-04-07T11:30:53;97234.25;;;19.29;100.00
8697;BME280;4385;48.848;8.924;2023-04-07T11:33:23;97244.50;;;19.27;100.00
8697;BME280;4385;48.848;8.924;2023-04-07T11:35:56;97246.25;;;19.27;100.00
8697;BME280;4385;48.848;8.924;2023-04-07T11:38:25;97242.84;;;19.26;100.00
8697;BME280;4385;48.848;8.924;2023-04-07T11:40:52;97247.06;;;19.27;100.00
8697;BME280;4385;48.848;8.924;2023-04-07T11:46:03;97244.50;;;19.27;100.00
8697;BME280;4385;48.848;8.924;2023-04-07T11:48:29;97246.16;;;19.30;100.00
8697;BME280;4385;48.848;8.924;2023-04-07T11:50:55;97245.22;;;19.33;100.00
8697;BME280;4385;48.848;8.924;2023-04-07T11:53:35;97244.28;;;19.35;100.00
8697;BME280;4385;48.848;8.924;2023-04-07T11:56:08;97247.59;;;19.39;100.00
8697;BME280;4385;48.848;8.924;2023-04-07T11:58:49;97251.72;;;19.43;100.00
8697;BME280;4385;48.848;8.924;2023-04-07T12:01:14;97258.53;;;19.44;100.00
8697;BME280;4385;48.848;8.924;2023-04-07T12:03:54;97256.81;;;19.43;100.00
8697;BME280;4385;48.848;8.924;2023-04-07T12:06:28;97259.44;;;19.41;100.00
8697;BME280;4385;48.848;8.924;2023-04-07T12:08:54;97256.91;;;19.40;100.00
8697;BME280;4385;48.848;8.924;2023-04-07T12:11:20;97261.94;;;19.43;100.00
8697;BME280;4385;48.848;8.924;2023-04-07T12:13:45;97258.56;;;19.42;100.00
8697;BME280;4385;48.848;8.924;2023-04-07T12:16:10;97256.06;;;19.41;100.00
8697;BME280;4385;48.848;8.924;2023-04-07T12:18:36;97253.50;;;19.41;100.00
8697;BME280;4385;48.848;8.924;2023-04-07T12:21:01;97247.63;;;19.37;100.00
8697;BME280;4385;48.848;8.924;2023-04-07T12:23:27;97256.19;;;19.36;100.00
8697;BME280;4385;48.848;8.924;2023-04-07T12:25:52;97266.50;;;19.33;100.00
8697;BME280;4385;48.848;8.924;2023-04-07T12:28:17;97272.53;;;19.30;100.00
8697;BME280;4385;48.848;8.924;2023-04-07T12:30:43;97274.41;;;19.25;100.00
8697;BME280;4385;48.848;8.924;2023-04-07T12:33:08;97275.28;;;19.23;100.00
8697;BME280;4385;48.848;8.924;2023-04-07T12:35:33;97277.13;;;19.19;100.00
8697;BME280;4385;48.848;8.924;2023-04-07T12:37:59;97283.19;;;19.15;100.00
8697;BME280;4385;48.848;8.924;2023-04-07T12:40:24;97272.22;;;19.11;100.00
8697;BME280;4385;48.848;8.924;2023-04-07T12:42:50;97279.94;;;19.10;100.00
8697;BME280;4385;48.848;8.924;2023-04-07T12:45:16;97290.22;;;19.06;100.00
8697;BME280;4385;48.848;8.924;2023-04-07T12:47:43;97288.50;;;19.05;100.00
8697;BME280;4385;48.848;8.924;2023-04-07T12:50:08;97282.63;;;19.03;100.00
8697;BME280;4385;48.848;8.924;2023-04-07T12:52:34;97287.75;;;19.03;100.00
8697;BME280;4385;48.848;8.924;2023-04-07T12:55:00;97285.19;;;19.03;100.00
8697;BME280;4385;48.848;8.924;2023-04-07T12:57:25;97287.69;;;19.05;100.00
8697;BME280;4385;48.848;8.924;2023-04-07T12:59:51;97291.06;;;19.05;100.00
8697;BME280;4385;48.848;8.924;2023-04-07T13:02:17;97288.50;;;19.05;100.00
8697;BME280;4385;48.848;8.924;2023-04-07T13:04:43;97287.69;;;19.05;100.00
8697;BME280;4385;48.848;8.924;2023-04-07T13:07:11;97292.81;;;19.05;100.00
8697;BME280;4385;48.848;8.924;2023-04-07T13:09:37;97297.91;;;19.05;100.00
8697;BME280;4385;48.848;8.924;2023-04-07T13:12:03;97291.91;;;19.06;100.00
8697;BME280;4385;48.848;8.924;2023-04-07T13:14:28;97291.91;;;19.06;100.00
8697;BME280;4385;48.848;8.924;2023-04-07T13:16:53;97293.63;;;19.05;100.00
8697;BME280;4385;48.848;8.924;2023-04-07T13:19:18;97292.81;;;19.05;100.00
8697;BME280;4385;48.848;8.924;2023-04-07T13:21:44;97286.94;;;19.01;100.00
8697;BME280;4385;48.848;8.924;2023-04-07T13:24:09;97285.28;;;19.00;100.00
8697;BME280;4385;48.848;8.924;2023-04-07T13:26:34;97290.38;;;19.00;100.00